Mijn Webcam  Mijn Webcam


webcam richting noord-oost  webcam facing north-east


Regen radar Meer informatie rain snow radar


Bezoek onze andere website:

Template documentation
and downloads

HWS Template - cumulus versie

And another site



METAR rapporten vliegvelden

   
EHGG - Groningen/Eelde, Netherlands
Afstand tot: Z 20 km
Gewijzigd: 13-08-2022 05:55
Helder  
Helder  
   Wind: Oosten 7.4 km/h
Wind: Oosten 7.4 km/h
Temperatuur: 16°C
Dauwpunt: 13°C
Vochtigheid: 83%
Barometer: 1018 hPa
Bewolking: Helder
Zicht: meer dan 10 km
Bewolking: Helder
EHGG 130355Z AUTO 10004KT 9999 NCD 16/13 Q1018
EHMA - Awg-1 Sea, Netherlands
Afstand tot: WNW 45 km
Gewijzigd: 13-08-2022 05:55
Helder  
Helder  
   Wind: ZO 29.6 km/h
Wind: ZO 29.6 km/h
Temperatuur: 21°C
Dauwpunt: 15°C
Vochtigheid: 69%
Barometer: 1018 hPa
Bewolking: Helder
Zicht: meer dan 10 km
Bewolking: Helder
EHMA 130355Z AUTO 13016KT 9999 NCD 21/15 Q1018
 

Script ontwikkeld door  Saratoga-weather.org Aangepast voor de template door  Weerstation Leuven

U vindt ons ook hier:

Het Weer Aktueel

UK Metoffice

European Weather Network

WeatherCloud

Weather Underground

Benelux Weer Netwerk

AWEKAS

WeatherlinkIP

HAMweather, WeatherForYou, PWS Weather

Apparatuur in gebruik:

Weerstation
Davis VP2

Weerprogramma
Cumulus

Davis VP2

Cumulus